sensor_id;sensor_type;location;lat;lon;timestamp;P1;durP1;ratioP1;P2;durP2;ratioP2
28910;SDS011;16028;42.642;23.310;2023-05-10T00:01:30;7.25;;;6.13;;
28910;SDS011;16028;42.642;23.310;2023-05-10T00:03:57;9.38;;;6.78;;
28910;SDS011;16028;42.642;23.310;2023-05-10T00:06:23;7.60;;;6.65;;
28910;SDS011;16028;42.642;23.310;2023-05-10T00:08:52;9.95;;;6.25;;
28910;SDS011;16028;42.642;23.310;2023-05-10T00:11:18;6.93;;;6.20;;
28910;SDS011;16028;42.642;23.310;2023-05-10T00:13:45;7.07;;;6.30;;
28910;SDS011;16028;42.642;23.310;2023-05-10T00:16:12;6.90;;;6.18;;
28910;SDS011;16028;42.642;23.310;2023-05-10T00:18:40;7.03;;;6.03;;
28910;SDS011;16028;42.642;23.310;2023-05-10T00:21:06;7.15;;;6.45;;
28910;SDS011;16028;42.642;23.310;2023-05-10T00:23:33;8.48;;;7.07;;
28910;SDS011;16028;42.642;23.310;2023-05-10T00:26:04;8.80;;;6.95;;
28910;SDS011;16028;42.642;23.310;2023-05-10T00:28:31;8.65;;;7.18;;
28910;SDS011;16028;42.642;23.310;2023-05-10T00:30:58;8.93;;;7.60;;
28910;SDS011;16028;42.642;23.310;2023-05-10T00:33:24;7.20;;;6.50;;
28910;SDS011;16028;42.642;23.310;2023-05-10T00:35:51;7.82;;;6.63;;
28910;SDS011;16028;42.642;23.310;2023-05-10T00:38:18;8.00;;;6.43;;
28910;SDS011;16028;42.642;23.310;2023-05-10T00:40:45;7.40;;;6.70;;
28910;SDS011;16028;42.642;23.310;2023-05-10T00:43:13;7.10;;;6.40;;
28910;SDS011;16028;42.642;23.310;2023-05-10T00:45:39;9.63;;;6.80;;
28910;SDS011;16028;42.642;23.310;2023-05-10T00:48:07;8.00;;;6.57;;
28910;SDS011;16028;42.642;23.310;2023-05-10T00:50:34;10.45;;;7.20;;
28910;SDS011;16028;42.642;23.310;2023-05-10T00:53:01;9.07;;;7.15;;
28910;SDS011;16028;42.642;23.310;2023-05-10T00:55:29;7.88;;;7.07;;
28910;SDS011;16028;42.642;23.310;2023-05-10T00:57:56;8.20;;;7.30;;
28910;SDS011;16028;42.642;23.310;2023-05-10T01:00:24;7.45;;;6.68;;
28910;SDS011;16028;42.642;23.310;2023-05-10T01:02:52;9.68;;;7.22;;
28910;SDS011;16028;42.642;23.310;2023-05-10T01:05:19;7.60;;;6.63;;
28910;SDS011;16028;42.642;23.310;2023-05-10T01:07:46;8.55;;;7.65;;
28910;SDS011;16028;42.642;23.310;2023-05-10T01:10:13;7.80;;;6.95;;
28910;SDS011;16028;42.642;23.310;2023-05-10T01:12:40;11.60;;;7.32;;
28910;SDS011;16028;42.642;23.310;2023-05-10T01:15:10;7.88;;;7.07;;
28910;SDS011;16028;42.642;23.310;2023-05-10T01:17:39;9.52;;;7.68;;
28910;SDS011;16028;42.642;23.310;2023-05-10T01:20:09;9.10;;;7.13;;
28910;SDS011;16028;42.642;23.310;2023-05-10T01:22:43;8.13;;;6.93;;
28910;SDS011;16028;42.642;23.310;2023-05-10T01:25:31;7.85;;;7.05;;
28910;SDS011;16028;42.642;23.310;2023-05-10T01:31:30;8.30;;;7.10;;
28910;SDS011;16028;42.642;23.310;2023-05-10T01:34:07;7.47;;;6.70;;
28910;SDS011;16028;42.642;23.310;2023-05-10T01:36:38;7.18;;;6.13;;
28910;SDS011;16028;42.642;23.310;2023-05-10T01:39:11;7.25;;;6.13;;
28910;SDS011;16028;42.642;23.310;2023-05-10T01:41:45;7.55;;;5.85;;
28910;SDS011;16028;42.642;23.310;2023-05-10T01:44:20;5.95;;;5.35;;
28910;SDS011;16028;42.642;23.310;2023-05-10T01:46:56;6.93;;;6.20;;
28910;SDS011;16028;42.642;23.310;2023-05-10T01:49:31;6.30;;;5.70;;
28910;SDS011;16028;42.642;23.310;2023-05-10T01:52:06;6.20;;;5.30;;
28910;SDS011;16028;42.642;23.310;2023-05-10T01:54:37;7.80;;;5.90;;
28910;SDS011;16028;42.642;23.310;2023-05-10T01:57:07;6.30;;;5.70;;
28910;SDS011;16028;42.642;23.310;2023-05-10T01:59:37;6.30;;;5.70;;
28910;SDS011;16028;42.642;23.310;2023-05-10T02:02:06;7.38;;;5.28;;
28910;SDS011;16028;42.642;23.310;2023-05-10T02:04:39;5.60;;;5.10;;
28910;SDS011;16028;42.642;23.310;2023-05-10T02:07:07;5.95;;;5.03;;
28910;SDS011;16028;42.642;23.310;2023-05-10T02:09:35;6.35;;;5.75;;
28910;SDS011;16028;42.642;23.310;2023-05-10T02:12:04;5.97;;;5.22;;
28910;SDS011;16028;42.642;23.310;2023-05-10T02:14:34;5.25;;;4.75;;
28910;SDS011;16028;42.642;23.310;2023-05-10T02:17:02;5.05;;;4.55;;
28910;SDS011;16028;42.642;23.310;2023-05-10T02:19:32;4.50;;;4.10;;
28910;SDS011;16028;42.642;23.310;2023-05-10T02:22:01;5.15;;;4.65;;
28910;SDS011;16028;42.642;23.310;2023-05-10T02:24:29;6.40;;;4.47;;
28910;SDS011;16028;42.642;23.310;2023-05-10T02:26:58;5.47;;;4.93;;
28910;SDS011;16028;42.642;23.310;2023-05-10T02:29:26;6.80;;;4.90;;
28910;SDS011;16028;42.642;23.310;2023-05-10T02:31:54;7.13;;;4.43;;
28910;SDS011;16028;42.642;23.310;2023-05-10T02:34:23;8.85;;;5.28;;
28910;SDS011;16028;42.642;23.310;2023-05-10T02:36:53;6.32;;;4.50;;
28910;SDS011;16028;42.642;23.310;2023-05-10T02:39:22;6.07;;;4.97;;
28910;SDS011;16028;42.642;23.310;2023-05-10T02:41:51;6.28;;;4.95;;
28910;SDS011;16028;42.642;23.310;2023-05-10T02:44:18;7.35;;;4.57;;
28910;SDS011;16028;42.642;23.310;2023-05-10T02:46:46;6.53;;;5.65;;
28910;SDS011;16028;42.642;23.310;2023-05-10T02:49:14;8.05;;;5.53;;
28910;SDS011;16028;42.642;23.310;2023-05-10T02:51:44;8.75;;;5.47;;
28910;SDS011;16028;42.642;23.310;2023-05-10T02:54:18;9.23;;;5.43;;
28910;SDS011;16028;42.642;23.310;2023-05-10T02:56:51;6.15;;;5.13;;
28910;SDS011;16028;42.642;23.310;2023-05-10T02:59:22;6.53;;;5.10;;
28910;SDS011;16028;42.642;23.310;2023-05-10T03:01:49;7.25;;;5.45;;
28910;SDS011;16028;42.642;23.310;2023-05-10T03:04:16;5.97;;;4.72;;
28910;SDS011;16028;42.642;23.310;2023-05-10T03:06:43;12.02;;;5.00;;
28910;SDS011;16028;42.642;23.310;2023-05-10T03:09:10;9.80;;;4.72;;
28910;SDS011;16028;42.642;23.310;2023-05-10T03:11:43;6.05;;;5.43;;
28910;SDS011;16028;42.642;23.310;2023-05-10T03:14:27;7.60;;;5.45;;
28910;SDS011;16028;42.642;23.310;2023-05-10T03:17:03;9.90;;;6.03;;
28910;SDS011;16028;42.642;23.310;2023-05-10T03:19:35;7.07;;;5.15;;
28910;SDS011;16028;42.642;23.310;2023-05-10T03:22:10;5.75;;;5.15;;
28910;SDS011;16028;42.642;23.310;2023-05-10T03:24:39;7.85;;;5.70;;
28910;SDS011;16028;42.642;23.310;2023-05-10T03:27:09;6.03;;;4.72;;
28910;SDS011;16028;42.642;23.310;2023-05-10T03:29:36;6.20;;;5.40;;
28910;SDS011;16028;42.642;23.310;2023-05-10T03:32:05;6.47;;;5.47;;
28910;SDS011;16028;42.642;23.310;2023-05-10T03:34:32;9.25;;;5.90;;
28910;SDS011;16028;42.642;23.310;2023-05-10T03:36:59;8.27;;;6.00;;
28910;SDS011;16028;42.642;23.310;2023-05-10T03:39:25;7.40;;;5.90;;
28910;SDS011;16028;42.642;23.310;2023-05-10T03:41:52;7.40;;;6.22;;
28910;SDS011;16028;42.642;23.310;2023-05-10T03:44:20;9.23;;;6.45;;
28910;SDS011;16028;42.642;23.310;2023-05-10T03:46:47;7.10;;;6.00;;
28910;SDS011;16028;42.642;23.310;2023-05-10T03:49:14;6.63;;;5.68;;
28910;SDS011;16028;42.642;23.310;2023-05-10T03:51:40;9.07;;;6.15;;
28910;SDS011;16028;42.642;23.310;2023-05-10T03:54:07;10.23;;;6.47;;
28910;SDS011;16028;42.642;23.310;2023-05-10T03:56:34;7.97;;;5.53;;
28910;SDS011;16028;42.642;23.310;2023-05-10T03:59:03;8.73;;;6.35;;
28910;SDS011;16028;42.642;23.310;2023-05-10T04:01:33;8.65;;;6.10;;
28910;SDS011;16028;42.642;23.310;2023-05-10T04:04:00;7.20;;;6.00;;
28910;SDS011;16028;42.642;23.310;2023-05-10T04:06:27;8.27;;;5.60;;
28910;SDS011;16028;42.642;23.310;2023-05-10T04:08:54;8.43;;;6.05;;
28910;SDS011;16028;42.642;23.310;2023-05-10T04:11:21;8.48;;;6.30;;
28910;SDS011;16028;42.642;23.310;2023-05-10T04:13:48;13.93;;;5.95;;
28910;SDS011;16028;42.642;23.310;2023-05-10T04:16:14;7.75;;;5.70;;
28910;SDS011;16028;42.642;23.310;2023-05-10T04:18:45;8.90;;;5.60;;
28910;SDS011;16028;42.642;23.310;2023-05-10T04:21:13;7.78;;;5.80;;
28910;SDS011;16028;42.642;23.310;2023-05-10T04:23:40;7.28;;;5.93;;
28910;SDS011;16028;42.642;23.310;2023-05-10T04:26:07;8.70;;;5.60;;
28910;SDS011;16028;42.642;23.310;2023-05-10T04:28:34;7.57;;;5.63;;
28910;SDS011;16028;42.642;23.310;2023-05-10T04:31:01;9.00;;;6.57;;
28910;SDS011;16028;42.642;23.310;2023-05-10T04:33:28;9.73;;;6.35;;
28910;SDS011;16028;42.642;23.310;2023-05-10T04:35:57;7.15;;;5.82;;
28910;SDS011;16028;42.642;23.310;2023-05-10T04:38:24;11.55;;;6.13;;
28910;SDS011;16028;42.642;23.310;2023-05-10T04:40:51;9.15;;;5.95;;
28910;SDS011;16028;42.642;23.310;2023-05-10T04:43:17;8.40;;;5.70;;
28910;SDS011;16028;42.642;23.310;2023-05-10T04:45:44;8.75;;;6.22;;
28910;SDS011;16028;42.642;23.310;2023-05-10T04:48:11;11.48;;;5.82;;
28910;SDS011;16028;42.642;23.310;2023-05-10T04:50:38;6.35;;;5.55;;
28910;SDS011;16028;42.642;23.310;2023-05-10T04:53:07;7.97;;;5.90;;
28910;SDS011;16028;42.642;23.310;2023-05-10T04:55:33;11.82;;;6.03;;
28910;SDS011;16028;42.642;23.310;2023-05-10T04:58:00;7.65;;;6.03;;
28910;SDS011;16028;42.642;23.310;2023-05-10T05:00:27;9.90;;;6.80;;
28910;SDS011;16028;42.642;23.310;2023-05-10T05:02:54;8.32;;;6.28;;
28910;SDS011;16028;42.642;23.310;2023-05-10T05:05:21;8.23;;;5.93;;
28910;SDS011;16028;42.642;23.310;2023-05-10T05:07:48;8.23;;;6.25;;
28910;SDS011;16028;42.642;23.310;2023-05-10T05:10:16;9.23;;;6.57;;
28910;SDS011;16028;42.642;23.310;2023-05-10T05:12:43;8.30;;;6.05;;
28910;SDS011;16028;42.642;23.310;2023-05-10T05:15:10;8.52;;;6.47;;
28910;SDS011;16028;42.642;23.310;2023-05-10T05:17:37;7.78;;;6.78;;
28910;SDS011;16028;42.642;23.310;2023-05-10T05:20:04;7.82;;;6.53;;
28910;SDS011;16028;42.642;23.310;2023-05-10T05:22:31;10.43;;;7.00;;
28910;SDS011;16028;42.642;23.310;2023-05-10T05:24:58;9.98;;;7.38;;
28910;SDS011;16028;42.642;23.310;2023-05-10T05:27:28;10.45;;;6.97;;
28910;SDS011;16028;42.642;23.310;2023-05-10T05:29:55;12.60;;;7.90;;
28910;SDS011;16028;42.642;23.310;2023-05-10T05:32:22;15.77;;;10.25;;
28910;SDS011;16028;42.642;23.310;2023-05-10T05:34:50;20.00;;;14.07;;
28910;SDS011;16028;42.642;23.310;2023-05-10T05:37:17;11.57;;;6.88;;
28910;SDS011;16028;42.642;23.310;2023-05-10T05:39:45;9.90;;;7.82;;
28910;SDS011;16028;42.642;23.310;2023-05-10T05:42:12;8.75;;;7.13;;
28910;SDS011;16028;42.642;23.310;2023-05-10T05:44:41;9.02;;;7.97;;
28910;SDS011;16028;42.642;23.310;2023-05-10T05:47:08;12.27;;;8.57;;
28910;SDS011;16028;42.642;23.310;2023-05-10T05:49:35;11.00;;;8.05;;
28910;SDS011;16028;42.642;23.310;2023-05-10T05:52:02;9.93;;;7.53;;
28910;SDS011;16028;42.642;23.310;2023-05-10T05:54:30;13.13;;;8.55;;
28910;SDS011;16028;42.642;23.310;2023-05-10T05:56:57;11.35;;;9.25;;
28910;SDS011;16028;42.642;23.310;2023-05-10T05:59:25;10.65;;;8.25;;
28910;SDS011;16028;42.642;23.310;2023-05-10T06:01:53;13.45;;;9.23;;
28910;SDS011;16028;42.642;23.310;2023-05-10T06:04:20;15.32;;;9.98;;
28910;SDS011;16028;42.642;23.310;2023-05-10T06:06:47;13.43;;;9.75;;
28910;SDS011;16028;42.642;23.310;2023-05-10T06:09:14;15.43;;;11.02;;
28910;SDS011;16028;42.642;23.310;2023-05-10T06:11:41;15.50;;;9.98;;
28910;SDS011;16028;42.642;23.310;2023-05-10T06:14:07;13.07;;;9.93;;
28910;SDS011;16028;42.642;23.310;2023-05-10T06:16:34;17.85;;;10.85;;
28910;SDS011;16028;42.642;23.310;2023-05-10T06:19:03;16.27;;;11.75;;
28910;SDS011;16028;42.642;23.310;2023-05-10T06:21:29;15.07;;;11.20;;
28910;SDS011;16028;42.642;23.310;2023-05-10T06:23:56;14.93;;;10.50;;
28910;SDS011;16028;42.642;23.310;2023-05-10T06:26:23;19.20;;;10.52;;
28910;SDS011;16028;42.642;23.310;2023-05-10T06:28:50;15.98;;;11.35;;
28910;SDS011;16028;42.642;23.310;2023-05-10T06:31:17;14.68;;;10.25;;
28910;SDS011;16028;42.642;23.310;2023-05-10T06:33:43;12.80;;;9.20;;
28910;SDS011;16028;42.642;23.310;2023-05-10T06:36:12;13.00;;;9.43;;
28910;SDS011;16028;42.642;23.310;2023-05-10T06:38:39;14.90;;;10.50;;
28910;SDS011;16028;42.642;23.310;2023-05-10T06:41:06;16.08;;;10.43;;
28910;SDS011;16028;42.642;23.310;2023-05-10T06:43:33;17.85;;;11.50;;
28910;SDS011;16028;42.642;23.310;2023-05-10T06:46:00;17.90;;;12.07;;
28910;SDS011;16028;42.642;23.310;2023-05-10T06:48:26;16.15;;;11.10;;
28910;SDS011;16028;42.642;23.310;2023-05-10T06:50:53;16.25;;;10.25;;
28910;SDS011;16028;42.642;23.310;2023-05-10T06:53:21;13.98;;;10.50;;
28910;SDS011;16028;42.642;23.310;2023-05-10T06:55:49;13.63;;;10.50;;
28910;SDS011;16028;42.642;23.310;2023-05-10T06:58:16;28.80;;;17.02;;
28910;SDS011;16028;42.642;23.310;2023-05-10T07:00:42;13.57;;;10.50;;
28910;SDS011;16028;42.642;23.310;2023-05-10T07:03:10;17.42;;;11.20;;
28910;SDS011;16028;42.642;23.310;2023-05-10T07:05:37;14.52;;;10.55;;
28910;SDS011;16028;42.642;23.310;2023-05-10T07:08:04;17.40;;;9.73;;
28910;SDS011;16028;42.642;23.310;2023-05-10T07:10:32;14.00;;;10.00;;
28910;SDS011;16028;42.642;23.310;2023-05-10T07:12:59;15.68;;;10.27;;
28910;SDS011;16028;42.642;23.310;2023-05-10T07:15:26;16.60;;;9.48;;
28910;SDS011;16028;42.642;23.310;2023-05-10T07:17:53;17.27;;;10.68;;
28910;SDS011;16028;42.642;23.310;2023-05-10T07:20:20;17.40;;;11.00;;
28910;SDS011;16028;42.642;23.310;2023-05-10T07:22:47;15.05;;;10.27;;
28910;SDS011;16028;42.642;23.310;2023-05-10T07:25:14;16.55;;;9.15;;
28910;SDS011;16028;42.642;23.310;2023-05-10T07:27:42;14.98;;;10.48;;
28910;SDS011;16028;42.642;23.310;2023-05-10T07:30:09;12.43;;;9.77;;
28910;SDS011;16028;42.642;23.310;2023-05-10T07:32:36;13.25;;;10.13;;
28910;SDS011;16028;42.642;23.310;2023-05-10T07:35:04;19.73;;;10.85;;
28910;SDS011;16028;42.642;23.310;2023-05-10T07:37:31;19.10;;;10.77;;
28910;SDS011;16028;42.642;23.310;2023-05-10T07:39:58;16.92;;;11.05;;
28910;SDS011;16028;42.642;23.310;2023-05-10T07:42:25;17.67;;;10.80;;
28910;SDS011;16028;42.642;23.310;2023-05-10T07:44:53;15.38;;;10.95;;
28910;SDS011;16028;42.642;23.310;2023-05-10T07:47:20;15.98;;;10.93;;
28910;SDS011;16028;42.642;23.310;2023-05-10T07:49:47;16.33;;;10.90;;
28910;SDS011;16028;42.642;23.310;2023-05-10T07:52:13;14.45;;;10.38;;
28910;SDS011;16028;42.642;23.310;2023-05-10T07:54:40;22.13;;;12.02;;
28910;SDS011;16028;42.642;23.310;2023-05-10T07:57:07;17.65;;;10.85;;
28910;SDS011;16028;42.642;23.310;2023-05-10T07:59:34;24.02;;;11.60;;
28910;SDS011;16028;42.642;23.310;2023-05-10T08:02:04;24.52;;;10.35;;
28910;SDS011;16028;42.642;23.310;2023-05-10T08:04:31;19.17;;;10.35;;
28910;SDS011;16028;42.642;23.310;2023-05-10T08:06:58;18.92;;;11.75;;
28910;SDS011;16028;42.642;23.310;2023-05-10T08:09:24;16.60;;;10.40;;
28910;SDS011;16028;42.642;23.310;2023-05-10T08:11:51;22.92;;;11.07;;
28910;SDS011;16028;42.642;23.310;2023-05-10T08:14:18;21.73;;;12.32;;
28910;SDS011;16028;42.642;23.310;2023-05-10T08:16:44;17.98;;;10.73;;
28910;SDS011;16028;42.642;23.310;2023-05-10T08:19:13;15.68;;;10.93;;
28910;SDS011;16028;42.642;23.310;2023-05-10T08:21:43;19.38;;;10.73;;
28910;SDS011;16028;42.642;23.310;2023-05-10T08:24:10;17.63;;;10.10;;
28910;SDS011;16028;42.642;23.310;2023-05-10T08:26:37;13.95;;;10.30;;
28910;SDS011;16028;42.642;23.310;2023-05-10T08:29:04;18.05;;;11.10;;
28910;SDS011;16028;42.642;23.310;2023-05-10T08:31:31;16.23;;;9.88;;
28910;SDS011;16028;42.642;23.310;2023-05-10T08:33:58;16.85;;;10.32;;
28910;SDS011;16028;42.642;23.310;2023-05-10T08:36:26;12.50;;;9.73;;
28910;SDS011;16028;42.642;23.310;2023-05-10T08:38:53;16.77;;;10.63;;
28910;SDS011;16028;42.642;23.310;2023-05-10T08:41:21;14.77;;;10.32;;
28910;SDS011;16028;42.642;23.310;2023-05-10T08:43:51;20.08;;;10.93;;
28910;SDS011;16028;42.642;23.310;2023-05-10T08:46:18;22.60;;;11.35;;
28910;SDS011;16028;42.642;23.310;2023-05-10T08:48:46;19.65;;;11.25;;
28910;SDS011;16028;42.642;23.310;2023-05-10T08:51:17;14.63;;;11.18;;
28910;SDS011;16028;42.642;23.310;2023-05-10T08:53:47;15.70;;;11.55;;
28910;SDS011;16028;42.642;23.310;2023-05-10T08:56:15;16.67;;;11.77;;
28910;SDS011;16028;42.642;23.310;2023-05-10T08:58:42;24.58;;;15.55;;
28910;SDS011;16028;42.642;23.310;2023-05-10T09:01:10;17.63;;;10.93;;
28910;SDS011;16028;42.642;23.310;2023-05-10T09:03:38;14.90;;;10.98;;
28910;SDS011;16028;42.642;23.310;2023-05-10T09:06:06;17.50;;;11.60;;
28910;SDS011;16028;42.642;23.310;2023-05-10T09:08:33;17.00;;;10.75;;
28910;SDS011;16028;42.642;23.310;2023-05-10T09:11:01;15.20;;;10.13;;
28910;SDS011;16028;42.642;23.310;2023-05-10T09:13:28;13.52;;;10.63;;
28910;SDS011;16028;42.642;23.310;2023-05-10T09:15:56;19.63;;;11.55;;
28910;SDS011;16028;42.642;23.310;2023-05-10T09:18:23;14.43;;;11.77;;
28910;SDS011;16028;42.642;23.310;2023-05-10T09:20:49;16.67;;;11.43;;
28910;SDS011;16028;42.642;23.310;2023-05-10T09:23:16;15.77;;;11.35;;
28910;SDS011;16028;42.642;23.310;2023-05-10T09:25:43;18.92;;;12.65;;
28910;SDS011;16028;42.642;23.310;2023-05-10T09:28:11;18.73;;;12.65;;
28910;SDS011;16028;42.642;23.310;2023-05-10T09:30:40;15.45;;;10.63;;
28910;SDS011;16028;42.642;23.310;2023-05-10T09:33:08;16.88;;;12.48;;
28910;SDS011;16028;42.642;23.310;2023-05-10T09:35:34;15.98;;;11.63;;
28910;SDS011;16028;42.642;23.310;2023-05-10T09:38:02;15.75;;;12.35;;
28910;SDS011;16028;42.642;23.310;2023-05-10T09:40:37;14.45;;;10.68;;
28910;SDS011;16028;42.642;23.310;2023-05-10T09:43:06;22.33;;;12.43;;
28910;SDS011;16028;42.642;23.310;2023-05-10T09:45:35;15.73;;;10.75;;
28910;SDS011;16028;42.642;23.310;2023-05-10T09:48:03;20.42;;;11.88;;
28910;SDS011;16028;42.642;23.310;2023-05-10T09:50:30;17.33;;;12.60;;
28910;SDS011;16028;42.642;23.310;2023-05-10T09:53:00;14.40;;;11.15;;
28910;SDS011;16028;42.642;23.310;2023-05-10T09:55:37;15.30;;;11.70;;
28910;SDS011;16028;42.642;23.310;2023-05-10T09:58:06;16.65;;;12.05;;
28910;SDS011;16028;42.642;23.310;2023-05-10T10:00:37;14.35;;;10.75;;
28910;SDS011;16028;42.642;23.310;2023-05-10T10:03:05;21.20;;;13.55;;
28910;SDS011;16028;42.642;23.310;2023-05-10T10:05:39;17.75;;;10.70;;
28910;SDS011;16028;42.642;23.310;2023-05-10T10:08:07;15.23;;;11.70;;
28910;SDS011;16028;42.642;23.310;2023-05-10T10:10:34;15.85;;;11.85;;
28910;SDS011;16028;42.642;23.310;2023-05-10T10:13:01;15.02;;;11.73;;
28910;SDS011;16028;42.642;23.310;2023-05-10T10:15:29;38.65;;;24.77;;
28910;SDS011;16028;42.642;23.310;2023-05-10T10:17:58;18.83;;;11.57;;
28910;SDS011;16028;42.642;23.310;2023-05-10T10:20:26;22.95;;;13.00;;
28910;SDS011;16028;42.642;23.310;2023-05-10T10:22:55;13.43;;;10.98;;
28910;SDS011;16028;42.642;23.310;2023-05-10T10:25:22;14.82;;;11.95;;
28910;SDS011;16028;42.642;23.310;2023-05-10T10:27:55;14.85;;;10.93;;
28910;SDS011;16028;42.642;23.310;2023-05-10T10:30:31;21.13;;;11.75;;
28910;SDS011;16028;42.642;23.310;2023-05-10T10:33:12;13.50;;;10.77;;
28910;SDS011;16028;42.642;23.310;2023-05-10T10:35:50;14.40;;;11.63;;
28910;SDS011;16028;42.642;23.310;2023-05-10T10:38:19;13.65;;;10.63;;
28910;SDS011;16028;42.642;23.310;2023-05-10T10:40:47;17.67;;;12.57;;
28910;SDS011;16028;42.642;23.310;2023-05-10T10:43:21;14.52;;;10.07;;
28910;SDS011;16028;42.642;23.310;2023-05-10T10:48:46;15.00;;;10.85;;
28910;SDS011;16028;42.642;23.310;2023-05-10T10:51:14;17.15;;;9.63;;
28910;SDS011;16028;42.642;23.310;2023-05-10T10:53:41;14.30;;;10.57;;
28910;SDS011;16028;42.642;23.310;2023-05-10T10:56:09;20.00;;;11.02;;
28910;SDS011;16028;42.642;23.310;2023-05-10T10:58:38;15.43;;;9.73;;
28910;SDS011;16028;42.642;23.310;2023-05-10T11:01:10;12.23;;;9.35;;
28910;SDS011;16028;42.642;23.310;2023-05-10T11:04:16;21.02;;;12.30;;
28910;SDS011;16028;42.642;23.310;2023-05-10T11:06:43;13.15;;;9.45;;
28910;SDS011;16028;42.642;23.310;2023-05-10T11:09:11;14.10;;;9.77;;
28910;SDS011;16028;42.642;23.310;2023-05-10T11:11:48;15.05;;;9.88;;
28910;SDS011;16028;42.642;23.310;2023-05-10T11:14:19;15.00;;;9.07;;
28910;SDS011;16028;42.642;23.310;2023-05-10T11:16:46;22.00;;;9.65;;
28910;SDS011;16028;42.642;23.310;2023-05-10T11:19:15;17.58;;;9.30;;
28910;SDS011;16028;42.642;23.310;2023-05-10T11:21:46;13.68;;;9.68;;
28910;SDS011;16028;42.642;23.310;2023-05-10T11:24:14;15.80;;;10.00;;
28910;SDS011;16028;42.642;23.310;2023-05-10T11:26:42;13.70;;;9.32;;
28910;SDS011;16028;42.642;23.310;2023-05-10T11:29:09;11.85;;;9.27;;
28910;SDS011;16028;42.642;23.310;2023-05-10T11:31:38;11.43;;;8.68;;
28910;SDS011;16028;42.642;23.310;2023-05-10T11:34:08;10.73;;;8.90;;
28910;SDS011;16028;42.642;23.310;2023-05-10T11:36:37;14.13;;;9.13;;
28910;SDS011;16028;42.642;23.310;2023-05-10T11:39:04;11.30;;;9.07;;
28910;SDS011;16028;42.642;23.310;2023-05-10T11:41:31;10.35;;;8.43;;
28910;SDS011;16028;42.642;23.310;2023-05-10T11:43:58;11.68;;;7.80;;
28910;SDS011;16028;42.642;23.310;2023-05-10T11:46:26;14.93;;;8.90;;
28910;SDS011;16028;42.642;23.310;2023-05-10T11:48:55;10.02;;;8.25;;
28910;SDS011;16028;42.642;23.310;2023-05-10T11:51:25;12.20;;;8.50;;
28910;SDS011;16028;42.642;23.310;2023-05-10T11:53:55;13.25;;;9.13;;
28910;SDS011;16028;42.642;23.310;2023-05-10T11:56:22;13.15;;;8.95;;
28910;SDS011;16028;42.642;23.310;2023-05-10T11:58:54;11.43;;;8.90;;
28910;SDS011;16028;42.642;23.310;2023-05-10T12:01:23;11.25;;;8.82;;
28910;SDS011;16028;42.642;23.310;2023-05-10T12:03:50;10.90;;;8.90;;
28910;SDS011;16028;42.642;23.310;2023-05-10T12:06:18;13.50;;;9.50;;
28910;SDS011;16028;42.642;23.310;2023-05-10T12:08:46;14.50;;;9.43;;
28910;SDS011;16028;42.642;23.310;2023-05-10T12:11:20;12.32;;;9.73;;
28910;SDS011;16028;42.642;23.310;2023-05-10T12:13:52;12.85;;;8.52;;
28910;SDS011;16028;42.642;23.310;2023-05-10T12:16:19;10.25;;;8.15;;
28910;SDS011;16028;42.642;23.310;2023-05-10T12:18:47;12.32;;;9.23;;
28910;SDS011;16028;42.642;23.310;2023-05-10T12:21:16;12.18;;;9.23;;
28910;SDS011;16028;42.642;23.310;2023-05-10T12:23:46;17.20;;;8.88;;
28910;SDS011;16028;42.642;23.310;2023-05-10T12:26:14;13.13;;;9.68;;
28910;SDS011;16028;42.642;23.310;2023-05-10T12:28:43;14.75;;;9.93;;
28910;SDS011;16028;42.642;23.310;2023-05-10T12:31:10;13.85;;;9.18;;
28910;SDS011;16028;42.642;23.310;2023-05-10T12:33:37;11.20;;;8.70;;
28910;SDS011;16028;42.642;23.310;2023-05-10T12:36:06;11.80;;;9.32;;
28910;SDS011;16028;42.642;23.310;2023-05-10T12:38:34;13.13;;;9.48;;
28910;SDS011;16028;42.642;23.310;2023-05-10T12:41:03;12.07;;;9.50;;
28910;SDS011;16028;42.642;23.310;2023-05-10T12:43:31;12.40;;;9.68;;
28910;SDS011;16028;42.642;23.310;2023-05-10T12:46:00;15.95;;;10.23;;
28910;SDS011;16028;42.642;23.310;2023-05-10T12:48:31;14.32;;;10.25;;
28910;SDS011;16028;42.642;23.310;2023-05-10T12:50:59;17.98;;;10.32;;
28910;SDS011;16028;42.642;23.310;2023-05-10T12:53:26;15.98;;;10.30;;
28910;SDS011;16028;42.642;23.310;2023-05-10T12:55:52;15.20;;;10.07;;
28910;SDS011;16028;42.642;23.310;2023-05-10T12:58:19;14.57;;;10.82;;
28910;SDS011;16028;42.642;23.310;2023-05-10T13:00:46;15.30;;;10.73;;
28910;SDS011;16028;42.642;23.310;2023-05-10T13:03:14;14.25;;;10.18;;
28910;SDS011;16028;42.642;23.310;2023-05-10T13:05:41;21.15;;;10.88;;
28910;SDS011;16028;42.642;23.310;2023-05-10T13:08:08;13.68;;;9.82;;
28910;SDS011;16028;42.642;23.310;2023-05-10T13:10:35;14.05;;;10.43;;
28910;SDS011;16028;42.642;23.310;2023-05-10T13:13:01;15.82;;;10.25;;
28910;SDS011;16028;42.642;23.310;2023-05-10T13:15:28;19.23;;;10.70;;
28910;SDS011;16028;42.642;23.310;2023-05-10T13:17:55;13.88;;;9.52;;
28910;SDS011;16028;42.642;23.310;2023-05-10T13:20:24;13.63;;;9.13;;
28910;SDS011;16028;42.642;23.310;2023-05-10T13:22:52;13.60;;;9.00;;
28910;SDS011;16028;42.642;23.310;2023-05-10T13:25:19;12.95;;;9.35;;
28910;SDS011;16028;42.642;23.310;2023-05-10T13:27:45;11.38;;;8.43;;
28910;SDS011;16028;42.642;23.310;2023-05-10T13:30:13;12.77;;;9.13;;
28910;SDS011;16028;42.642;23.310;2023-05-10T13:32:39;14.27;;;8.68;;
28910;SDS011;16028;42.642;23.310;2023-05-10T13:35:07;10.75;;;8.68;;
28910;SDS011;16028;42.642;23.310;2023-05-10T13:37:35;11.93;;;8.93;;
28910;SDS011;16028;42.642;23.310;2023-05-10T13:40:03;13.02;;;9.30;;
28910;SDS011;16028;42.642;23.310;2023-05-10T13:42:31;12.27;;;8.77;;
28910;SDS011;16028;42.642;23.310;2023-05-10T13:44:58;12.32;;;9.30;;
28910;SDS011;16028;42.642;23.310;2023-05-10T13:47:26;13.23;;;8.70;;
28910;SDS011;16028;42.642;23.310;2023-05-10T13:49:52;12.75;;;9.02;;
28910;SDS011;16028;42.642;23.310;2023-05-10T13:52:19;17.10;;;8.45;;
28910;SDS011;16028;42.642;23.310;2023-05-10T13:54:48;11.65;;;9.23;;
28910;SDS011;16028;42.642;23.310;2023-05-10T13:57:14;10.02;;;8.10;;
28910;SDS011;16028;42.642;23.310;2023-05-10T13:59:41;12.48;;;8.13;;
28910;SDS011;16028;42.642;23.310;2023-05-10T14:02:08;11.30;;;8.85;;
28910;SDS011;16028;42.642;23.310;2023-05-10T14:04:35;10.90;;;8.20;;
28910;SDS011;16028;42.642;23.310;2023-05-10T14:07:02;14.68;;;9.95;;
28910;SDS011;16028;42.642;23.310;2023-05-10T14:09:29;12.98;;;9.77;;
28910;SDS011;16028;42.642;23.310;2023-05-10T14:11:57;12.40;;;8.50;;
28910;SDS011;16028;42.642;23.310;2023-05-10T14:14:24;12.50;;;9.05;;
28910;SDS011;16028;42.642;23.310;2023-05-10T14:16:51;12.40;;;8.85;;
28910;SDS011;16028;42.642;23.310;2023-05-10T14:19:18;15.00;;;8.18;;
28910;SDS011;16028;42.642;23.310;2023-05-10T14:21:45;11.18;;;8.07;;
28910;SDS011;16028;42.642;23.310;2023-05-10T14:24:12;14.32;;;9.70;;
28910;SDS011;16028;42.642;23.310;2023-05-10T14:26:38;13.73;;;8.02;;
28910;SDS011;16028;42.642;23.310;2023-05-10T14:29:06;11.60;;;8.15;;
28910;SDS011;16028;42.642;23.310;2023-05-10T14:31:33;16.02;;;8.75;;
28910;SDS011;16028;42.642;23.310;2023-05-10T14:34:00;10.13;;;7.80;;